createdAt,value
2023-01-13T00:01:06.293Z,4.27
2023-01-13T00:03:32.624Z,4.50
2023-01-13T00:05:59.289Z,4.50
2023-01-13T00:08:25.864Z,4.90
2023-01-13T00:10:52.292Z,4.13
2023-01-13T00:13:26.551Z,4.27
2023-01-13T00:15:56.919Z,4.83
2023-01-13T00:18:23.286Z,5.10
2023-01-13T00:20:57.939Z,4.60
2023-01-13T00:23:24.927Z,3.37
2023-01-13T00:25:51.329Z,3.63
2023-01-13T00:28:17.843Z,4.37
2023-01-13T00:30:44.190Z,3.90
2023-01-13T00:33:10.709Z,4.57
2023-01-13T00:35:37.094Z,3.57
2023-01-13T00:38:03.460Z,4.63
2023-01-13T00:40:29.911Z,4.70
2023-01-13T00:43:14.898Z,3.60
2023-01-13T00:45:41.248Z,4.10
2023-01-13T00:48:07.637Z,3.63
2023-01-13T00:50:34.033Z,4.63
2023-01-13T00:53:00.578Z,3.67
2023-01-13T00:55:27.405Z,4.27
2023-01-13T00:57:53.746Z,3.93
2023-01-13T01:00:20.261Z,3.40
2023-01-13T01:02:46.640Z,3.97
2023-01-13T01:05:13.080Z,4.83
2023-01-13T01:07:39.521Z,2.97
2023-01-13T01:10:06.179Z,4.20
2023-01-13T01:12:32.542Z,4.33
2023-01-13T01:14:58.906Z,4.67
2023-01-13T01:17:25.259Z,3.87
2023-01-13T01:19:51.620Z,3.73
2023-01-13T01:22:17.989Z,4.00
2023-01-13T01:24:44.543Z,4.03
2023-01-13T01:27:10.958Z,4.27
2023-01-13T01:29:37.334Z,3.30
2023-01-13T01:32:03.727Z,3.33
2023-01-13T01:34:30.240Z,3.07
2023-01-13T01:36:56.710Z,4.13
2023-01-13T01:39:23.108Z,3.30
2023-01-13T01:42:08.466Z,4.73
2023-01-13T01:44:54.444Z,4.47
2023-01-13T01:47:21.975Z,3.57
2023-01-13T01:49:49.064Z,4.20
2023-01-13T01:52:19.243Z,4.20
2023-01-13T01:54:54.052Z,4.80
2023-01-13T01:57:32.849Z,4.03
2023-01-13T02:00:00.981Z,5.00
2023-01-13T02:02:28.748Z,4.33
2023-01-13T02:04:56.928Z,4.20
2023-01-13T02:07:25.322Z,5.30
2023-01-13T02:09:52.605Z,4.77
2023-01-13T02:12:37.042Z,3.47
2023-01-13T02:15:42.082Z,4.07
2023-01-13T02:18:17.643Z,4.53
2023-01-13T02:20:57.016Z,4.40
2023-01-13T02:23:54.267Z,3.77
2023-01-13T02:26:26.566Z,6.63
2023-01-13T02:29:11.555Z,4.73
2023-01-13T02:31:43.192Z,5.00
2023-01-13T02:34:12.515Z,3.40
2023-01-13T02:36:57.659Z,4.30
2023-01-13T02:39:27.271Z,5.00
2023-01-13T02:42:17.538Z,3.97
2023-01-13T02:44:46.837Z,3.73
2023-01-13T02:47:13.182Z,5.93
2023-01-13T02:49:43.575Z,4.23
2023-01-13T02:52:15.094Z,3.90
2023-01-13T02:54:44.133Z,4.30
2023-01-13T02:57:11.623Z,4.03
2023-01-13T02:59:39.595Z,4.77
2023-01-13T03:02:06.966Z,4.03
2023-01-13T03:04:45.265Z,3.83
2023-01-13T03:07:20.852Z,3.70
2023-01-13T03:09:54.510Z,4.50
2023-01-13T03:12:32.225Z,5.20
2023-01-13T03:15:05.915Z,3.20
2023-01-13T03:17:39.048Z,3.53
2023-01-13T03:20:08.716Z,4.53
2023-01-13T03:22:35.019Z,4.67
2023-01-13T03:25:01.426Z,3.87
2023-01-13T03:27:33.817Z,3.03
2023-01-13T03:30:07.400Z,4.40
2023-01-13T03:32:35.489Z,4.13
2023-01-13T03:35:09.939Z,3.90
2023-01-13T03:37:37.797Z,3.80
2023-01-13T03:40:08.614Z,3.97
2023-01-13T03:42:36.956Z,3.93
2023-01-13T03:45:12.557Z,3.33
2023-01-13T03:47:51.186Z,3.63
2023-01-13T03:50:22.552Z,3.97
2023-01-13T03:52:56.004Z,5.80
2023-01-13T03:55:23.066Z,4.30
2023-01-13T03:57:53.594Z,3.60
2023-01-13T04:00:21.804Z,4.10
2023-01-13T04:02:56.158Z,4.23
2023-01-13T04:05:22.483Z,2.90
2023-01-13T04:07:48.869Z,2.63
2023-01-13T04:10:18.265Z,3.43
2023-01-13T04:13:00.711Z,2.70
2023-01-13T04:15:31.836Z,2.07
2023-01-13T04:18:02.161Z,2.30
2023-01-13T04:20:28.487Z,3.27
2023-01-13T04:22:54.777Z,2.83
2023-01-13T04:25:21.124Z,2.97
2023-01-13T04:27:47.439Z,2.83
2023-01-13T04:30:13.843Z,2.87
2023-01-13T04:32:40.473Z,3.00
2023-01-13T04:35:08.447Z,2.43
2023-01-13T04:37:34.791Z,1.57
2023-01-13T04:40:01.108Z,1.93
2023-01-13T04:42:27.485Z,1.70
2023-01-13T04:44:53.857Z,2.63
2023-01-13T04:47:20.209Z,4.10
2023-01-13T04:49:46.564Z,2.03
2023-01-13T04:52:12.964Z,2.40
2023-01-13T04:54:39.257Z,1.73
2023-01-13T04:57:05.627Z,3.07
2023-01-13T04:59:34.428Z,2.00
2023-01-13T05:02:00.946Z,2.53
2023-01-13T05:04:27.455Z,1.87
2023-01-13T05:06:53.869Z,2.40
2023-01-13T05:09:20.166Z,2.20
2023-01-13T05:12:04.983Z,2.33
2023-01-13T05:14:49.769Z,2.10
2023-01-13T05:17:22.728Z,2.80
2023-01-13T05:19:49.017Z,2.90
2023-01-13T05:22:33.845Z,2.00
2023-01-13T05:25:18.720Z,2.70
2023-01-13T05:27:45.053Z,2.30
2023-01-13T05:30:11.623Z,2.87
2023-01-13T05:32:37.965Z,1.83
2023-01-13T05:35:04.532Z,4.00
2023-01-13T05:37:30.980Z,3.00
2023-01-13T05:40:15.839Z,2.63
2023-01-13T05:43:00.697Z,3.13
2023-01-13T05:45:27.003Z,1.83
2023-01-13T05:47:53.441Z,3.37
2023-01-13T05:50:19.795Z,2.97
2023-01-13T05:52:46.112Z,2.70
2023-01-13T05:55:12.557Z,2.37
2023-01-13T05:57:38.939Z,2.70
2023-01-13T06:00:05.635Z,2.60
2023-01-13T06:02:32.174Z,2.80
2023-01-13T06:04:59.038Z,2.10
2023-01-13T06:07:25.416Z,3.83
2023-01-13T06:09:51.725Z,2.43
2023-01-13T06:12:18.041Z,2.20
2023-01-13T06:14:44.374Z,3.17
2023-01-13T06:17:11.856Z,3.10
2023-01-13T06:19:38.475Z,2.77
2023-01-13T06:22:18.498Z,3.07
2023-01-13T06:24:46.134Z,3.13
2023-01-13T06:27:12.783Z,3.80
2023-01-13T06:29:39.183Z,2.53
2023-01-13T06:32:07.243Z,2.67
2023-01-13T06:34:35.383Z,3.87
2023-01-13T06:37:02.463Z,2.40
2023-01-13T06:39:31.103Z,2.93
2023-01-13T06:42:16.483Z,3.10
2023-01-13T06:44:43.508Z,2.87
2023-01-13T06:47:09.949Z,2.50
2023-01-13T06:49:36.362Z,2.83
2023-01-13T06:52:02.665Z,3.37
2023-01-13T06:54:29.108Z,3.50
2023-01-13T06:56:55.415Z,3.23
2023-01-13T06:59:22.621Z,3.50
2023-01-13T07:01:49.100Z,2.80
2023-01-13T07:04:15.597Z,2.57
2023-01-13T07:06:41.956Z,2.90
2023-01-13T07:09:08.269Z,2.63
2023-01-13T07:11:34.649Z,3.33
2023-01-13T07:14:19.809Z,2.57
2023-01-13T07:16:46.317Z,2.80
2023-01-13T07:19:12.816Z,2.93
2023-01-13T07:21:39.144Z,2.67
2023-01-13T07:24:05.612Z,3.23
2023-01-13T07:26:31.985Z,2.57
2023-01-13T07:28:58.942Z,3.83
2023-01-13T07:31:25.956Z,2.87
2023-01-13T07:33:52.300Z,2.50
2023-01-13T07:36:18.625Z,3.13
2023-01-13T07:38:44.921Z,2.97
2023-01-13T07:41:33.430Z,2.93
2023-01-13T07:44:00.468Z,3.63
2023-01-13T07:46:27.008Z,2.27
2023-01-13T07:48:53.300Z,3.63
2023-01-13T07:51:19.633Z,3.80
2023-01-13T07:53:45.976Z,3.57
2023-01-13T07:56:13.373Z,3.77
2023-01-13T07:58:39.670Z,2.80
2023-01-13T08:01:09.967Z,2.80
2023-01-13T08:03:36.416Z,4.03
2023-01-13T08:06:02.726Z,4.37
2023-01-13T08:08:29.083Z,2.63
2023-01-13T08:10:58.350Z,3.50
2023-01-13T08:13:25.785Z,4.60
2023-01-13T08:15:53.545Z,3.57
2023-01-13T08:18:22.168Z,4.67
2023-01-13T08:20:48.991Z,3.50
2023-01-13T08:23:15.410Z,3.63
2023-01-13T08:25:41.905Z,3.57
2023-01-13T08:28:08.245Z,3.60
2023-01-13T08:30:34.618Z,3.97
2023-01-13T08:33:01.659Z,3.00
2023-01-13T08:35:28.042Z,3.90
2023-01-13T08:37:54.345Z,4.07
2023-01-13T08:40:21.666Z,3.90
2023-01-13T08:42:48.801Z,3.27
2023-01-13T08:45:15.321Z,3.43
2023-01-13T08:47:41.748Z,3.27
2023-01-13T08:50:08.325Z,2.63
2023-01-13T08:52:34.703Z,3.60
2023-01-13T08:55:00.978Z,2.90
2023-01-13T08:57:27.467Z,3.27
2023-01-13T08:59:53.865Z,2.67
2023-01-13T09:02:21.349Z,2.23
2023-01-13T09:04:47.920Z,2.97
2023-01-13T09:07:14.408Z,2.70
2023-01-13T09:09:40.803Z,3.10
2023-01-13T09:12:26.089Z,2.97
2023-01-13T09:14:52.487Z,2.33
2023-01-13T09:17:18.867Z,2.47
2023-01-13T09:19:45.170Z,3.03
2023-01-13T09:22:14.646Z,2.17
2023-01-13T09:24:40.990Z,2.60
2023-01-13T09:27:08.650Z,2.70
2023-01-13T09:29:34.970Z,2.13
2023-01-13T09:32:01.401Z,2.80
2023-01-13T09:34:46.322Z,2.63
2023-01-13T09:37:12.710Z,2.13
2023-01-13T09:39:40.361Z,2.97
2023-01-13T09:42:35.882Z,2.47
2023-01-13T09:45:04.695Z,2.73
2023-01-13T09:47:33.519Z,2.40
2023-01-13T09:50:08.109Z,3.37
2023-01-13T09:52:35.904Z,1.87
2023-01-13T09:55:14.939Z,3.00
2023-01-13T09:57:41.656Z,2.00
2023-01-13T10:00:16.811Z,2.93
2023-01-13T10:02:43.123Z,2.00
2023-01-13T10:05:12.819Z,2.57
2023-01-13T10:07:42.653Z,3.10
2023-01-13T10:10:13.479Z,2.30
2023-01-13T10:12:58.380Z,2.57
2023-01-13T10:15:26.783Z,2.13
2023-01-13T10:17:57.528Z,2.30
2023-01-13T10:20:30.065Z,1.93
2023-01-13T10:23:01.966Z,2.13
2023-01-13T10:25:36.546Z,3.17
2023-01-13T10:28:08.433Z,2.07
2023-01-13T10:30:36.641Z,2.03
2023-01-13T10:33:26.260Z,2.30
2023-01-13T10:35:53.928Z,3.00
2023-01-13T10:38:25.526Z,2.47
2023-01-13T10:41:01.771Z,2.10
2023-01-13T10:43:29.149Z,2.60
2023-01-13T10:46:06.515Z,2.30
2023-01-13T10:48:35.933Z,2.43
2023-01-13T10:51:11.502Z,2.07
2023-01-13T10:53:50.463Z,3.10
2023-01-13T10:56:18.662Z,2.53
2023-01-13T10:58:45.168Z,2.90
2023-01-13T11:01:20.833Z,2.90
2023-01-13T11:03:48.205Z,1.63
2023-01-13T11:06:28.929Z,2.40
2023-01-13T11:08:58.236Z,3.30
2023-01-13T11:11:27.471Z,1.57
2023-01-13T11:14:13.564Z,2.73
2023-01-13T11:16:50.182Z,1.70
2023-01-13T11:19:20.912Z,2.23
2023-01-13T11:21:53.784Z,3.47
2023-01-13T11:24:40.062Z,2.10
2023-01-13T11:27:07.390Z,1.77
2023-01-13T11:29:52.381Z,2.47
2023-01-13T11:32:19.985Z,2.10
2023-01-13T11:34:48.406Z,1.67
2023-01-13T11:37:18.118Z,2.17
2023-01-13T11:39:44.472Z,2.37
2023-01-13T11:42:21.755Z,3.20
2023-01-13T11:44:59.702Z,1.70
2023-01-13T11:47:26.664Z,2.43
2023-01-13T11:49:53.413Z,1.77
2023-01-13T11:52:39.983Z,1.80
2023-01-13T11:55:12.382Z,2.47
2023-01-13T11:57:44.828Z,1.93
2023-01-13T12:00:17.334Z,2.07
2023-01-13T12:03:02.620Z,1.70
2023-01-13T12:05:42.590Z,1.90
2023-01-13T12:08:15.447Z,2.57
2023-01-13T12:10:46.375Z,1.10
2023-01-13T12:13:31.013Z,2.10
2023-01-13T12:16:00.474Z,2.00
2023-01-13T12:18:26.886Z,1.33
2023-01-13T12:21:00.113Z,1.87
2023-01-13T12:23:32.464Z,1.80
2023-01-13T12:26:01.070Z,2.13
2023-01-13T12:28:32.449Z,1.73
2023-01-13T12:31:02.868Z,2.73
2023-01-13T12:33:41.482Z,2.07
2023-01-13T12:36:26.530Z,1.70
2023-01-13T12:38:56.512Z,2.67
2023-01-13T12:41:24.586Z,2.67
2023-01-13T12:44:11.153Z,1.80
2023-01-13T12:46:53.222Z,1.70
2023-01-13T12:49:23.637Z,2.10
2023-01-13T12:51:52.759Z,1.90
2023-01-13T12:54:37.461Z,1.50
2023-01-13T12:57:19.147Z,2.80
2023-01-13T12:59:49.101Z,1.53
2023-01-13T13:02:24.183Z,1.87
2023-01-13T13:04:52.545Z,2.40
2023-01-13T13:07:23.432Z,2.00
2023-01-13T13:09:52.199Z,2.30
2023-01-13T13:12:51.252Z,2.27
2023-01-13T13:15:22.057Z,1.57
2023-01-13T13:18:21.018Z,2.07
2023-01-13T13:20:56.346Z,2.03
2023-01-13T13:23:48.121Z,1.50
2023-01-13T13:26:24.998Z,2.57
2023-01-13T13:29:10.224Z,1.33
2023-01-13T13:31:47.494Z,2.30
2023-01-13T13:34:28.989Z,2.30
2023-01-13T13:37:14.925Z,2.87
2023-01-13T13:40:01.223Z,2.30
2023-01-13T13:42:58.170Z,3.17
2023-01-13T13:45:44.173Z,2.00
2023-01-13T13:48:19.372Z,1.63
2023-01-13T13:50:57.511Z,2.67
2023-01-13T13:53:26.135Z,2.77
2023-01-13T13:55:57.494Z,1.17
2023-01-13T13:58:26.273Z,2.40
2023-01-13T14:00:53.542Z,2.93
2023-01-13T14:03:19.968Z,1.77
2023-01-13T14:06:00.906Z,1.70
2023-01-13T14:08:28.437Z,2.17
2023-01-13T14:10:54.806Z,1.87
2023-01-13T14:13:25.642Z,2.33
2023-01-13T14:15:56.684Z,2.13
2023-01-13T14:18:23.164Z,2.50
2023-01-13T14:20:54.210Z,2.67
2023-01-13T14:23:22.603Z,2.63
2023-01-13T14:25:49.917Z,2.37
2023-01-13T14:28:20.481Z,2.60
2023-01-13T14:30:47.211Z,1.43
2023-01-13T14:33:18.002Z,3.07
2023-01-13T14:36:03.309Z,2.20
2023-01-13T14:38:29.743Z,2.17
2023-01-13T14:40:56.126Z,2.60
2023-01-13T14:43:24.521Z,2.10
2023-01-13T14:45:55.564Z,2.07
2023-01-13T14:48:23.581Z,2.50
2023-01-13T14:50:50.059Z,2.27
2023-01-13T14:53:34.984Z,2.07
2023-01-13T14:56:21.378Z,1.83
2023-01-13T14:58:49.791Z,3.60
2023-01-13T15:01:26.701Z,2.13
2023-01-13T15:03:53.275Z,2.10
2023-01-13T15:06:24.171Z,1.83
2023-01-13T15:08:51.864Z,2.40
2023-01-13T15:11:20.985Z,1.87
2023-01-13T15:13:52.060Z,1.83
2023-01-13T15:16:25.067Z,1.97
2023-01-13T15:18:51.807Z,2.07
2023-01-13T15:21:18.683Z,2.73
2023-01-13T15:23:47.180Z,2.30
2023-01-13T15:26:33.901Z,2.77
2023-01-13T15:29:00.901Z,2.77
2023-01-13T15:31:27.769Z,1.97
2023-01-13T15:33:54.595Z,2.80
2023-01-13T15:36:28.926Z,2.17
2023-01-13T15:38:55.773Z,2.77
2023-01-13T15:41:42.127Z,2.87
2023-01-13T15:44:29.338Z,2.60
2023-01-13T15:46:56.352Z,3.40
2023-01-13T15:49:27.839Z,2.30
2023-01-13T15:51:54.200Z,2.67
2023-01-13T15:54:23.056Z,2.40
2023-01-13T15:56:49.403Z,2.03
2023-01-13T15:59:17.661Z,2.27
2023-01-13T16:01:44.493Z,2.80
2023-01-13T16:04:11.177Z,2.63
2023-01-13T16:06:37.612Z,2.13
2023-01-13T16:09:04.576Z,2.33
2023-01-13T16:11:33.483Z,2.07
2023-01-13T16:14:00.080Z,1.70
2023-01-13T16:16:28.261Z,2.30
2023-01-13T16:18:54.689Z,1.53
2023-01-13T16:21:21.073Z,2.30
2023-01-13T16:23:48.213Z,1.33
2023-01-13T16:26:19.659Z,1.27
2023-01-13T16:28:46.013Z,1.43
2023-01-13T16:31:21.500Z,2.00
2023-01-13T16:33:48.506Z,1.50
2023-01-13T16:36:15.642Z,1.83
2023-01-13T16:38:42.449Z,1.63
2023-01-13T16:41:09.094Z,1.13
2023-01-13T16:43:36.001Z,1.50
2023-01-13T16:46:02.568Z,1.30
2023-01-13T16:48:28.883Z,1.10
2023-01-13T16:50:55.572Z,1.20
2023-01-13T16:53:21.953Z,1.20
2023-01-13T16:55:48.311Z,1.40
2023-01-13T16:58:18.971Z,1.50
2023-01-13T17:00:46.932Z,2.03
2023-01-13T17:03:16.478Z,1.60
2023-01-13T17:05:44.659Z,1.50
2023-01-13T17:08:17.900Z,1.63
2023-01-13T17:10:44.884Z,2.17
2023-01-13T17:13:16.271Z,1.57
2023-01-13T17:15:43.004Z,1.53
2023-01-13T17:18:11.472Z,1.93
2023-01-13T17:20:37.777Z,1.40
2023-01-13T17:23:04.097Z,2.03
2023-01-13T17:25:30.651Z,1.60
2023-01-13T17:27:57.034Z,1.37
2023-01-13T17:30:23.380Z,2.00
2023-01-13T17:32:49.680Z,1.83
2023-01-13T17:35:19.025Z,2.50
2023-01-13T17:37:45.772Z,1.97
2023-01-13T17:40:12.467Z,1.93
2023-01-13T17:42:38.782Z,2.80
2023-01-13T17:45:06.175Z,1.37
2023-01-13T17:47:32.494Z,1.80
2023-01-13T17:49:58.885Z,2.20
2023-01-13T17:52:25.238Z,1.60
2023-01-13T17:54:52.780Z,1.93
2023-01-13T17:57:19.096Z,2.00
2023-01-13T17:59:48.015Z,2.50
2023-01-13T18:02:14.635Z,1.63
2023-01-13T18:04:41.914Z,1.77
2023-01-13T18:07:08.475Z,2.00
2023-01-13T18:09:34.782Z,2.03
2023-01-13T18:12:01.135Z,1.70
2023-01-13T18:14:28.172Z,1.97
2023-01-13T18:16:54.495Z,1.87
2023-01-13T18:19:39.680Z,2.03
2023-01-13T18:22:24.494Z,1.50
2023-01-13T18:25:09.261Z,1.97
2023-01-13T18:27:36.685Z,1.80
2023-01-13T18:30:03.750Z,1.67
2023-01-13T18:32:32.852Z,1.53
2023-01-13T18:35:05.808Z,2.23
2023-01-13T18:37:36.042Z,1.57
2023-01-13T18:40:02.598Z,1.90
2023-01-13T18:42:47.363Z,2.30
2023-01-13T18:45:13.685Z,2.07
2023-01-13T18:47:42.210Z,1.83
2023-01-13T18:50:09.175Z,1.70
2023-01-13T18:52:36.167Z,1.97
2023-01-13T18:55:02.537Z,1.40
2023-01-13T18:57:29.353Z,1.87
2023-01-13T18:59:57.073Z,1.70
2023-01-13T19:02:26.283Z,2.07
2023-01-13T19:04:53.831Z,2.10
2023-01-13T19:07:26.765Z,2.37
2023-01-13T19:09:55.324Z,1.87
2023-01-13T19:12:31.006Z,1.77
2023-01-13T19:14:58.958Z,2.37
2023-01-13T19:17:26.551Z,1.50
2023-01-13T19:19:54.208Z,1.80
2023-01-13T19:22:28.510Z,1.77
2023-01-13T19:24:55.044Z,1.80
2023-01-13T19:27:21.942Z,2.00
2023-01-13T19:29:52.365Z,1.40
2023-01-13T19:32:20.307Z,1.27
2023-01-13T19:34:47.846Z,1.67
2023-01-13T19:37:14.225Z,2.23
2023-01-13T19:39:40.540Z,1.77
2023-01-13T19:42:25.497Z,2.20
2023-01-13T19:45:10.323Z,2.17
2023-01-13T19:47:38.533Z,2.07
2023-01-13T19:50:06.574Z,1.80
2023-01-13T19:52:32.870Z,1.17
2023-01-13T19:54:59.208Z,1.87
2023-01-13T19:57:25.937Z,1.60
2023-01-13T19:59:52.294Z,1.30
2023-01-13T20:02:31.262Z,1.77
2023-01-13T20:05:01.769Z,1.57
2023-01-13T20:07:29.188Z,1.30
2023-01-13T20:09:58.292Z,2.43
2023-01-13T20:12:25.006Z,1.70
2023-01-13T20:14:51.595Z,1.80
2023-01-13T20:17:19.030Z,2.30
2023-01-13T20:19:45.623Z,2.17
2023-01-13T20:22:12.064Z,1.50
2023-01-13T20:24:38.413Z,2.30
2023-01-13T20:27:05.429Z,1.97
2023-01-13T20:29:32.286Z,1.90
2023-01-13T20:31:58.673Z,2.20
2023-01-13T20:34:25.194Z,1.70
2023-01-13T20:36:51.710Z,1.97
2023-01-13T20:39:22.104Z,1.60
2023-01-13T20:42:07.563Z,1.77
2023-01-13T20:44:33.970Z,1.67
2023-01-13T20:47:00.424Z,1.90
2023-01-13T20:49:27.864Z,1.77
2023-01-13T20:51:54.686Z,2.40
2023-01-13T20:54:21.207Z,2.20
2023-01-13T20:56:47.731Z,2.50
2023-01-13T20:59:14.364Z,1.67
2023-01-13T21:01:40.723Z,1.93
2023-01-13T21:04:07.560Z,1.63
2023-01-13T21:06:34.143Z,2.10
2023-01-13T21:09:00.788Z,2.90
2023-01-13T21:11:46.284Z,1.90
2023-01-13T21:14:32.595Z,2.00
2023-01-13T21:16:58.927Z,2.10
2023-01-13T21:19:25.263Z,2.73
2023-01-13T21:21:51.549Z,2.17
2023-01-13T21:24:17.917Z,1.73
2023-01-13T21:26:44.208Z,1.77
2023-01-13T21:29:10.534Z,2.17
2023-01-13T21:31:37.188Z,1.90
2023-01-13T21:34:04.555Z,2.10
2023-01-13T21:36:30.958Z,1.20
2023-01-13T21:38:58.024Z,1.77
2023-01-13T21:41:43.815Z,1.20
2023-01-13T21:44:38.325Z,1.73
2023-01-13T21:47:24.139Z,1.80
2023-01-13T21:49:50.541Z,1.83
2023-01-13T21:52:16.955Z,1.80
2023-01-13T21:55:01.969Z,1.83
2023-01-13T21:57:28.324Z,2.83
2023-01-13T21:59:54.679Z,2.13
2023-01-13T22:02:32.058Z,1.43
2023-01-13T22:05:03.706Z,1.57
2023-01-13T22:07:32.430Z,1.90
2023-01-13T22:09:59.017Z,2.13
2023-01-13T22:12:25.430Z,2.07
2023-01-13T22:14:52.091Z,2.87
2023-01-13T22:17:20.757Z,2.17
2023-01-13T22:19:52.677Z,2.03
2023-01-13T22:22:19.799Z,1.93
2023-01-13T22:24:47.234Z,2.13
2023-01-13T22:27:14.700Z,2.17
2023-01-13T22:29:41.207Z,2.57
2023-01-13T22:32:07.497Z,2.17
2023-01-13T22:34:35.011Z,1.47
2023-01-13T22:37:01.593Z,2.57
2023-01-13T22:39:29.070Z,1.50
2023-01-13T22:41:55.541Z,2.33
2023-01-13T22:44:22.088Z,2.03
2023-01-13T22:46:48.711Z,1.90
2023-01-13T22:49:15.473Z,2.60
2023-01-13T22:51:41.824Z,1.77
2023-01-13T22:54:08.540Z,2.03
2023-01-13T22:56:35.118Z,1.63
2023-01-13T22:59:02.185Z,1.67
2023-01-13T23:01:29.775Z,2.37
2023-01-13T23:03:56.554Z,2.20
2023-01-13T23:06:27.370Z,2.33
2023-01-13T23:08:53.960Z,1.83
2023-01-13T23:11:21.375Z,2.23
2023-01-13T23:13:47.670Z,1.73
2023-01-13T23:16:15.293Z,2.43
2023-01-13T23:18:45.219Z,2.87
2023-01-13T23:21:12.972Z,1.93
2023-01-13T23:23:39.727Z,1.57
2023-01-13T23:26:06.715Z,1.77
2023-01-13T23:28:33.703Z,2.47
2023-01-13T23:31:00.246Z,2.03
2023-01-13T23:33:26.881Z,1.60
2023-01-13T23:35:56.730Z,1.80
2023-01-13T23:38:23.272Z,1.90
2023-01-13T23:40:49.777Z,1.60
2023-01-13T23:43:16.297Z,2.70
2023-01-13T23:45:42.622Z,2.27
2023-01-13T23:48:09.130Z,1.40
2023-01-13T23:50:35.450Z,1.70
2023-01-13T23:53:01.921Z,2.10
2023-01-13T23:55:28.245Z,2.47
2023-01-13T23:57:54.738Z,2.27
